Time;durP1;ratioP1;P1;durP2;ratioP2;P2;SDS_P1;SDS_P2;PMS_P1;PMS_P2;Temp;Humidity;BMP_temperature;BMP_pressure;BME280_temperature;BME280_humidity;BME280_pressure;Samples;Min_cycle;Max_cycle;Signal;HPM_P1;HPM_P2
2021/11/24 00:01:28;;;;;;;7.47;5.07;;;-2.10;99.90;;;;;;5052145;28;20197;-70
2021/11/24 00:03:55;;;;;;;6.20;5.13;;;-2.10;99.90;;;;;;5052840;28;20688;-70
2021/11/24 00:06:22;;;;;;;6.85;5.20;;;-2.20;99.90;;;;;;5045895;28;20190;-70
2021/11/24 00:08:49;;;;;;;7.25;6.10;;;-2.20;99.90;;;;;;5012797;28;20238;-69
2021/11/24 00:11:16;;;;;;;8.93;5.70;;;-2.20;99.90;;;;;;5012413;28;20206;-70
2021/11/24 00:13:43;;;;;;;6.65;5.05;;;-2.20;99.90;;;;;;5012788;28;20643;-70
2021/11/24 00:16:11;;;;;;;9.10;5.95;;;-2.20;99.90;;;;;;5012520;28;20253;-70
2021/11/24 00:18:38;;;;;;;7.22;4.93;;;-2.20;99.90;;;;;;5012913;28;20637;-70
2021/11/24 00:21:07;;;;;;;7.90;5.50;;;-2.20;99.90;;;;;;5012288;28;20650;-70
2021/11/24 00:23:34;;;;;;;7.90;6.13;;;-2.20;99.90;;;;;;5012855;28;20205;-70
2021/11/24 00:26:00;;;;;;;7.13;5.13;;;-2.20;99.90;;;;;;5012558;28;20206;-70
2021/11/24 00:28:27;;;;;;;6.80;5.55;;;-2.20;99.90;;;;;;5012805;28;20226;-70
2021/11/24 00:30:54;;;;;;;8.38;5.32;;;-2.20;99.90;;;;;;5011901;28;20290;-69
2021/11/24 00:33:22;;;;;;;7.57;4.63;;;-2.20;99.90;;;;;;5012718;28;20233;-70
2021/11/24 00:35:49;;;;;;;7.28;5.30;;;-2.30;99.90;;;;;;5012402;28;20724;-70
2021/11/24 00:38:16;;;;;;;5.78;5.13;;;-2.30;99.90;;;;;;5012472;28;20619;-70
2021/11/24 00:40:43;;;;;;;5.90;5.03;;;-2.30;99.90;;;;;;5012280;28;20210;-68
2021/11/24 00:43:10;;;;;;;6.63;5.00;;;-2.30;99.90;;;;;;5011829;28;20202;-70
2021/11/24 00:45:37;;;;;;;7.45;4.88;;;-2.30;99.90;;;;;;5012430;28;20210;-70
2021/11/24 00:48:04;;;;;;;7.90;5.40;;;-2.30;99.90;;;;;;5011990;28;20230;-69
2021/11/24 00:50:32;;;;;;;7.68;6.35;;;-2.40;99.90;;;;;;5012370;28;20610;-70
2021/11/24 00:52:59;;;;;;;7.32;6.60;;;-2.40;99.90;;;;;;5011402;28;20218;-70
2021/11/24 00:55:25;;;;;;;9.23;5.90;;;-2.40;99.90;;;;;;5012264;28;20222;-70
2021/11/24 00:57:52;;;;;;;9.38;5.28;;;-2.50;99.90;;;;;;5011769;28;20230;-69
2021/11/24 01:00:19;;;;;;;7.35;5.10;;;-2.40;99.90;;;;;;5012072;28;20203;-69
2021/11/24 01:02:46;;;;;;;6.55;5.82;;;-2.50;99.90;;;;;;5011663;28;20198;-70
2021/11/24 01:05:13;;;;;;;5.47;4.95;;;-2.50;99.90;;;;;;5011909;28;20625;-69
2021/11/24 01:07:41;;;;;;;7.22;4.40;;;-2.50;99.90;;;;;;5011966;28;20740;-70
2021/11/24 01:10:10;;;;;;;6.05;4.82;;;-2.50;99.90;;;;;;5011796;28;20219;-70
2021/11/24 01:12:37;;;;;;;7.10;5.03;;;-2.50;99.90;;;;;;5011421;28;20785;-69
2021/11/24 01:15:05;;;;;;;5.97;4.88;;;-2.50;99.90;;;;;;5011577;28;20209;-69
2021/11/24 01:17:31;;;;;;;6.05;4.75;;;-2.50;99.90;;;;;;5011743;28;20234;-69
2021/11/24 01:19:58;;;;;;;6.15;5.35;;;-2.50;99.90;;;;;;5011578;28;20558;-69
2021/11/24 01:22:25;;;;;;;6.80;5.45;;;-2.50;99.90;;;;;;5011250;28;20199;-70
2021/11/24 01:24:53;;;;;;;12.57;5.22;;;-2.50;99.90;;;;;;5011567;28;20202;-69
2021/11/24 01:27:20;;;;;;;7.03;4.70;;;-2.50;99.90;;;;;;5011467;28;20226;-69
2021/11/24 01:29:47;;;;;;;9.68;5.45;;;-2.60;99.90;;;;;;5011677;28;20206;-70
2021/11/24 01:32:13;;;;;;;7.70;4.80;;;-2.60;99.90;;;;;;5010830;28;20206;-70
2021/11/24 01:34:40;;;;;;;4.90;4.43;;;-2.60;99.90;;;;;;5011505;28;20198;-70
2021/11/24 01:37:07;;;;;;;6.13;5.28;;;-2.60;99.90;;;;;;5011044;28;20230;-69
2021/11/24 01:39:33;;;;;;;5.35;4.45;;;-2.60;99.90;;;;;;5011354;28;20677;-70
2021/11/24 01:42:01;;;;;;;6.85;4.72;;;-2.60;99.90;;;;;;5010534;28;20206;-69
2021/11/24 01:44:29;;;;;;;6.03;5.13;;;-2.70;99.90;;;;;;5011502;28;20650;-71
2021/11/24 01:46:58;;;;;;;8.73;5.13;;;-2.70;99.90;;;;;;5010987;28;20233;-70
2021/11/24 01:49:26;;;;;;;5.97;5.00;;;-2.70;99.90;;;;;;5011503;28;20198;-71
2021/11/24 01:51:55;;;;;;;5.20;4.70;;;-2.70;99.90;;;;;;5010001;28;20206;-71
2021/11/24 01:54:23;;;;;;;6.90;4.78;;;-2.70;99.90;;;;;;5011143;28;20206;-70
2021/11/24 01:56:50;;;;;;;5.22;4.70;;;-2.70;99.90;;;;;;5010958;28;20730;-69
2021/11/24 01:59:18;;;;;;;7.60;5.32;;;-2.70;99.90;;;;;;5011066;28;20624;-70
2021/11/24 02:01:46;;;;;;;8.07;4.70;;;-2.60;99.90;;;;;;5010452;28;20248;-70
2021/11/24 02:04:14;;;;;;;8.60;4.95;;;-2.60;99.90;;;;;;5010986;28;20205;-70
2021/11/24 02:06:42;;;;;;;5.25;4.10;;;-2.60;99.90;;;;;;5010878;28;20202;-70
2021/11/24 02:09:09;;;;;;;5.50;4.55;;;-2.60;99.90;;;;;;5010955;28;20878;-71
2021/11/24 02:11:37;;;;;;;5.15;4.43;;;-2.60;99.90;;;;;;5010275;28;20264;-71
2021/11/24 02:14:04;;;;;;;6.30;4.70;;;-2.60;99.90;;;;;;5010807;28;20620;-70
2021/11/24 02:16:33;;;;;;;8.98;5.30;;;-2.60;99.90;;;;;;5010651;28;20276;-69
2021/11/24 02:19:00;;;;;;;7.72;4.45;;;-2.70;99.90;;;;;;5010675;28;20202;-69
2021/11/24 02:21:28;;;;;;;6.00;4.82;;;-2.70;99.90;;;;;;5010422;28;20293;-70
2021/11/24 02:23:54;;;;;;;6.30;4.63;;;-2.70;99.90;;;;;;5010850;28;20252;-70
2021/11/24 02:26:22;;;;;;;5.70;5.05;;;-2.70;99.90;;;;;;5010702;28;20674;-70
2021/11/24 02:28:49;;;;;;;6.15;5.22;;;-2.70;99.90;;;;;;5010517;28;20610;-71
2021/11/24 02:31:20;;;;;;;4.95;4.43;;;-2.70;99.90;;;;;;5010010;28;20206;-70
2021/11/24 02:33:49;;;;;;;5.85;5.00;;;-2.70;99.90;;;;;;5010634;28;20237;-69
2021/11/24 02:36:16;;;;;;;8.38;5.80;;;-2.70;99.90;;;;;;5010687;28;20772;-70
2021/11/24 02:38:44;;;;;;;6.22;4.90;;;-2.70;99.90;;;;;;5010764;28;20242;-70
2021/11/24 02:41:11;;;;;;;5.97;4.95;;;-2.70;99.90;;;;;;5010086;28;20334;-69
2021/11/24 02:43:38;;;;;;;6.97;4.95;;;-2.70;99.90;;;;;;5010459;28;20207;-70
2021/11/24 02:46:05;;;;;;;7.50;5.10;;;-2.70;99.90;;;;;;5010539;28;20207;-70
2021/11/24 02:48:31;;;;;;;6.78;5.82;;;-2.60;99.90;;;;;;5010371;28;20272;-69
2021/11/24 02:50:58;;;;;;;8.13;5.43;;;-2.60;99.90;;;;;;5010108;28;20202;-70
2021/11/24 02:53:26;;;;;;;6.97;5.30;;;-2.70;99.90;;;;;;5010395;28;20221;-70
2021/11/24 02:55:54;;;;;;;7.40;5.10;;;-2.70;99.90;;;;;;5010387;28;20315;-70
2021/11/24 02:58:21;;;;;;;6.60;5.30;;;-2.70;99.90;;;;;;5010317;28;20227;-70
2021/11/24 03:00:48;;;;;;;7.68;4.68;;;-2.70;99.90;;;;;;5010292;28;20681;-70
2021/11/24 03:03:15;;;;;;;6.07;4.93;;;-2.80;99.90;;;;;;5010167;28;20257;-70
2021/11/24 03:05:42;;;;;;;8.25;5.45;;;-2.80;99.90;;;;;;5013878;28;20207;-71
2021/11/24 03:08:09;;;;;;;8.27;6.13;;;-2.80;99.90;;;;;;5014097;28;20253;-69
2021/11/24 03:10:36;;;;;;;6.50;5.90;;;-2.80;99.90;;;;;;5014155;28;20202;-70
2021/11/24 03:13:05;;;;;;;6.95;5.00;;;-2.90;99.90;;;;;;5013657;28;20620;-69
2021/11/24 03:15:32;;;;;;;6.95;5.50;;;-2.90;99.90;;;;;;5014008;28;20203;-71
2021/11/24 03:17:59;;;;;;;7.45;5.10;;;-2.90;99.90;;;;;;5013988;28;20706;-69
2021/11/24 03:20:28;;;;;;;11.70;5.63;;;-3.00;99.90;;;;;;5013979;28;20202;-70
2021/11/24 03:22:56;;;;;;;6.43;5.10;;;-3.00;99.90;;;;;;5013379;28;20305;-70
2021/11/24 03:25:23;;;;;;;7.30;5.00;;;-3.00;99.90;;;;;;5013766;28;20261;-70
2021/11/24 03:27:50;;;;;;;6.32;5.38;;;-3.00;99.90;;;;;;5013608;28;20740;-70
2021/11/24 03:30:21;;;;;;;8.95;4.85;;;-3.00;99.90;;;;;;5013823;28;20206;-70
2021/11/24 03:32:48;;;;;;;5.65;5.00;;;-3.00;99.90;;;;;;5013146;28;20206;-71
2021/11/24 03:35:15;;;;;;;6.32;5.00;;;-3.00;99.90;;;;;;5013710;28;20233;-70
2021/11/24 03:37:44;;;;;;;6.95;5.38;;;-3.00;99.90;;;;;;5013471;28;20237;-70
2021/11/24 03:40:14;;;;;;;8.52;5.22;;;-3.00;99.90;;;;;;5013617;28;20202;-69
2021/11/24 03:42:44;;;;;;;7.13;5.20;;;-3.00;99.90;;;;;;5012955;28;20779;-69
2021/11/24 03:45:11;;;;;;;7.18;5.38;;;-3.00;99.90;;;;;;5013711;28;20203;-70
2021/11/24 03:47:39;;;;;;;7.28;5.53;;;-3.10;99.90;;;;;;5013135;28;20222;-70
2021/11/24 03:50:07;;;;;;;9.75;6.00;;;-3.10;99.90;;;;;;5013454;28;20214;-69
2021/11/24 03:52:34;;;;;;;7.63;5.30;;;-3.10;99.90;;;;;;5012549;28;20614;-70
2021/11/24 03:55:01;;;;;;;5.90;4.90;;;-3.10;99.90;;;;;;5013247;28;20202;-70
2021/11/24 03:57:27;;;;;;;5.70;4.93;;;-3.10;99.90;;;;;;5012797;28;20658;-69
2021/11/24 03:59:54;;;;;;;6.18;5.53;;;-3.10;99.90;;;;;;5013465;28;20218;-70
2021/11/24 04:02:21;;;;;;;9.48;5.45;;;-3.20;99.90;;;;;;5012397;28;20206;-70
2021/11/24 04:04:49;;;;;;;12.18;6.38;;;-3.10;99.90;;;;;;5013345;28;20252;-70
2021/11/24 04:07:16;;;;;;;7.20;5.75;;;-3.20;99.90;;;;;;5012746;28;20225;-70
2021/11/24 04:09:42;;;;;;;11.90;5.78;;;-3.20;99.90;;;;;;5013338;28;20574;-69
2021/11/24 04:12:09;;;;;;;7.80;5.90;;;-3.10;99.90;;;;;;5012367;28;20210;-69
2021/11/24 04:14:36;;;;;;;9.20;5.78;;;-3.10;99.90;;;;;;5012631;28;20579;-70
2021/11/24 04:17:03;;;;;;;6.70;5.32;;;-3.10;99.90;;;;;;5012901;28;20280;-70
2021/11/24 04:19:30;;;;;;;8.60;5.60;;;-3.10;99.90;;;;;;5013005;28;20202;-69
2021/11/24 04:21:58;;;;;;;7.60;5.90;;;-3.10;99.90;;;;;;5012243;28;20217;-70
2021/11/24 04:24:26;;;;;;;8.25;6.63;;;-3.10;99.90;;;;;;5012624;28;20591;-70
2021/11/24 04:26:53;;;;;;;8.20;6.75;;;-3.10;99.90;;;;;;5012529;28;20230;-70
2021/11/24 04:29:19;;;;;;;9.90;7.43;;;-3.10;99.90;;;;;;5012582;28;20289;-69
2021/11/24 04:31:46;;;;;;;11.45;7.30;;;-3.10;99.90;;;;;;5012003;28;20214;-69
2021/11/24 04:34:13;;;;;;;9.88;7.60;;;-3.10;99.90;;;;;;5012274;28;20194;-70
2021/11/24 04:36:39;;;;;;;8.80;5.93;;;-3.20;99.90;;;;;;5019215;28;20221;-69
2021/11/24 04:39:07;;;;;;;10.55;6.65;;;-3.20;99.90;;;;;;5022496;28;20201;-70
2021/11/24 04:41:34;;;;;;;9.23;6.70;;;-3.20;99.90;;;;;;5020656;28;20194;-70
2021/11/24 04:44:02;;;;;;;12.40;8.77;;;-3.20;99.90;;;;;;5020679;28;20209;-70
2021/11/24 04:46:29;;;;;;;8.38;6.38;;;-3.20;99.90;;;;;;5021835;28;20194;-69
2021/11/24 04:48:55;;;;;;;14.32;8.10;;;-3.30;99.90;;;;;;5020374;28;20636;-70
2021/11/24 04:51:22;;;;;;;9.23;6.40;;;-3.30;99.90;;;;;;5022146;28;20221;-71
2021/11/24 04:53:49;;;;;;;9.00;6.57;;;-3.30;99.90;;;;;;5028682;28;20205;-70
2021/11/24 04:56:17;;;;;;;7.95;6.90;;;-3.30;99.90;;;;;;5018298;28;21489;-69
2021/11/24 04:58:51;;;;;;;9.30;6.68;;;-3.30;99.90;;;;;;5016392;28;20260;-69
2021/11/24 05:01:18;;;;;;;8.45;6.47;;;-3.20;99.90;;;;;;5022832;28;20202;-71
2021/11/24 05:03:45;;;;;;;13.27;6.40;;;-3.20;99.90;;;;;;5019846;28;20696;-70
2021/11/24 05:06:12;;;;;;;8.45;6.05;;;-3.20;99.90;;;;;;5021487;28;20194;-70
2021/11/24 05:08:40;;;;;;;13.05;7.07;;;-3.20;99.90;;;;;;5020914;28;20214;-70
2021/11/24 05:11:07;;;;;;;11.63;6.43;;;-3.20;99.90;;;;;;5019475;28;20197;-69
2021/11/24 05:13:36;;;;;;;10.45;7.07;;;-3.20;99.90;;;;;;5021147;28;20206;-70
2021/11/24 05:16:04;;;;;;;9.55;6.82;;;-3.30;99.90;;;;;;5020444;28;20285;-69
2021/11/24 05:18:35;;;;;;;7.35;5.70;;;-3.30;99.90;;;;;;5020979;28;20218;-70
2021/11/24 05:21:03;;;;;;;6.72;5.75;;;-3.30;99.90;;;;;;5019270;28;20945;-69
2021/11/24 05:23:31;;;;;;;10.15;6.65;;;-3.30;99.90;;;;;;5019376;28;20198;-70
2021/11/24 05:25:58;;;;;;;8.65;6.40;;;-3.40;99.90;;;;;;5019507;28;20208;-70
2021/11/24 05:28:25;;;;;;;9.32;7.15;;;-3.40;99.90;;;;;;5016559;28;20467;-70
2021/11/24 05:30:53;;;;;;;9.63;7.38;;;-3.40;99.90;;;;;;5010464;28;20318;-70
2021/11/24 05:33:19;;;;;;;8.70;6.47;;;-3.40;99.90;;;;;;5011206;28;20207;-70
2021/11/24 05:35:46;;;;;;;8.00;6.63;;;-3.40;99.90;;;;;;5011038;28;20210;-69
2021/11/24 05:38:13;;;;;;;12.35;6.82;;;-3.40;99.90;;;;;;5010827;28;20230;-70
2021/11/24 05:40:39;;;;;;;7.80;5.93;;;-3.40;99.90;;;;;;5010931;28;20210;-70
2021/11/24 05:43:06;;;;;;;11.05;7.00;;;-3.40;99.90;;;;;;5010482;28;20217;-70
2021/11/24 05:45:40;;;;;;;10.02;6.88;;;-3.30;99.90;;;;;;5011086;28;20272;-70
2021/11/24 05:48:13;;;;;;;9.82;7.32;;;-3.30;99.90;;;;;;5010144;28;20252;-69
2021/11/24 05:50:41;;;;;;;9.02;6.47;;;-3.30;99.90;;;;;;5010646;28;20612;-69
2021/11/24 05:53:09;;;;;;;8.45;6.05;;;-3.30;99.90;;;;;;5033878;22;20210;-90
2021/11/24 05:55:35;;;;;;;11.05;7.00;;;-3.30;99.90;;;;;;5013973;28;20580;-91
2021/11/24 05:58:02;;;;;;;9.70;7.07;;;-3.40;99.90;;;;;;4998410;28;20227;-91
2021/11/24 06:00:29;;;;;;;8.75;6.95;;;-3.40;99.90;;;;;;4996358;28;20206;-90
2021/11/24 06:02:56;;;;;;;8.90;6.20;;;-3.40;99.90;;;;;;4997270;28;20207;-90
2021/11/24 06:05:24;;;;;;;8.10;6.43;;;-3.40;99.90;;;;;;4997632;28;20199;-91
2021/11/24 06:07:51;;;;;;;10.65;7.45;;;-3.40;99.90;;;;;;4997648;28;20554;-91
2021/11/24 06:10:18;;;;;;;7.75;6.50;;;-3.40;99.90;;;;;;4997652;28;20206;-90
2021/11/24 06:12:44;;;;;;;7.72;6.82;;;-3.20;99.90;;;;;;4998980;28;20218;-90
2021/11/24 06:15:15;;;;;;;10.23;6.75;;;-3.20;99.90;;;;;;4997515;28;20203;-91
2021/11/24 06:17:42;;;;;;;7.70;6.82;;;-3.20;99.90;;;;;;4997555;28;20226;-91
2021/11/24 06:20:09;;;;;;;10.35;7.53;;;-3.30;99.90;;;;;;4999405;28;20722;-91
2021/11/24 06:22:38;;;;;;;8.40;6.43;;;-3.30;99.90;;;;;;4998371;28;20211;-91
2021/11/24 06:25:05;;;;;;;7.55;6.28;;;-3.40;99.90;;;;;;5009770;28;20211;-91
2021/11/24 06:27:32;;;;;;;7.60;5.97;;;-3.40;99.90;;;;;;5013076;28;20203;-91
2021/11/24 06:29:59;;;;;;;8.15;6.65;;;-3.40;99.90;;;;;;5011153;28;20330;-92
2021/11/24 06:32:26;;;;;;;10.65;7.07;;;-3.40;99.90;;;;;;5015846;28;20203;-91
2021/11/24 06:34:53;;;;;;;11.93;6.95;;;-3.40;99.90;;;;;;5015901;28;20223;-91
2021/11/24 06:37:19;;;;;;;11.45;7.70;;;-3.40;99.90;;;;;;4994980;28;20226;-90
2021/11/24 06:39:48;;;;;;;11.07;7.20;;;-3.40;99.90;;;;;;4997266;28;20217;-90
2021/11/24 06:42:15;;;;;;;12.45;7.22;;;-3.40;99.90;;;;;;4997138;28;20613;-90
2021/11/24 06:44:42;;;;;;;9.70;6.68;;;-3.40;99.90;;;;;;4997180;28;20227;-90
2021/11/24 06:47:09;;;;;;;8.50;6.35;;;-3.40;99.90;;;;;;4997203;28;20210;-91
2021/11/24 06:49:35;;;;;;;9.30;6.15;;;-3.40;99.90;;;;;;4997468;28;20207;-91
2021/11/24 06:52:02;;;;;;;12.95;7.95;;;-3.40;99.90;;;;;;4997227;28;20213;-90
2021/11/24 06:54:29;;;;;;;8.60;6.43;;;-3.40;99.90;;;;;;4997430;28;20273;-89
2021/11/24 06:56:57;;;;;;;12.77;6.95;;;-3.40;99.90;;;;;;5015970;28;20202;-90
2021/11/24 06:59:24;;;;;;;11.18;7.28;;;-3.40;99.90;;;;;;5016314;28;20297;-90
2021/11/24 07:01:51;;;;;;;10.20;7.20;;;-3.40;99.90;;;;;;5010088;28;20195;-91
2021/11/24 07:04:17;;;;;;;10.73;7.95;;;-3.40;99.90;;;;;;5016319;28;20245;-90
2021/11/24 07:06:44;;;;;;;11.85;8.90;;;-3.40;99.90;;;;;;5015999;28;20205;-91
2021/11/24 07:09:12;;;;;;;12.93;8.27;;;-3.30;99.90;;;;;;5016521;28;20191;-90
2021/11/24 07:11:40;;;;;;;12.07;8.25;;;-3.30;99.90;;;;;;5017015;28;20206;-91
2021/11/24 07:14:09;;;;;;;16.80;7.93;;;-3.30;99.90;;;;;;5016872;28;20240;-90
2021/11/24 07:16:36;;;;;;;11.93;8.00;;;-3.30;99.90;;;;;;5016903;28;20644;-91
2021/11/24 07:19:03;;;;;;;10.82;7.80;;;-3.30;99.90;;;;;;5016993;28;20229;-91
2021/11/24 07:21:29;;;;;;;13.25;8.40;;;-3.20;99.90;;;;;;5016910;28;20206;-88
2021/11/24 07:23:56;;;;;;;15.55;8.35;;;-3.20;99.90;;;;;;5017606;28;20261;-90
2021/11/24 07:26:25;;;;;;;10.35;8.13;;;-3.20;99.90;;;;;;5018121;28;20218;-91
2021/11/24 07:28:52;;;;;;;11.25;8.18;;;-3.20;99.90;;;;;;5017798;28;20207;-93
2021/11/24 07:31:21;;;;;;;11.73;8.82;;;-3.10;99.90;;;;;;5005322;28;20203;-93
2021/11/24 07:33:48;;;;;;;11.50;7.55;;;-3.10;99.90;;;;;;4998500;28;20261;-93
2021/11/24 07:36:15;;;;;;;10.40;8.30;;;-3.00;99.90;;;;;;4999841;28;20203;-93
2021/11/24 07:39:22;;;;;;;10.15;7.18;;;-2.90;99.90;;;;;;4999628;28;20306;-94
2021/11/24 07:41:50;;;;;;;10.77;8.63;;;-2.70;99.90;;;;;;5003307;28;20272;-93
2021/11/24 07:44:17;;;;;;;10.63;7.60;;;-2.40;99.90;;;;;;5004886;28;20305;-93
2021/11/24 07:46:45;;;;;;;10.45;6.75;;;-2.20;99.90;;;;;;5002744;28;20231;-93
2021/11/24 07:49:40;;;;;;;13.77;8.30;;;-2.00;99.90;;;;;;5000669;28;20287;-93
2021/11/24 07:55:11;;;;;;;11.65;8.30;;;-1.50;99.90;;;;;;4996115;28;20211;-93
2021/11/24 07:57:53;;;;;;;12.10;8.38;;;-1.20;99.90;;;;;;5002267;28;20222;-94
2021/11/24 08:00:22;;;;;;;11.70;7.15;;;-1.10;99.90;;;;;;5000633;28;20199;-93
2021/11/24 08:02:53;;;;;;;10.60;8.45;;;-0.80;99.90;;;;;;4999578;28;20207;-93
2021/11/24 08:05:20;;;;;;;10.85;7.05;;;-0.70;99.90;;;;;;5000717;28;20254;-94
2021/11/24 08:08:04;;;;;;;8.48;6.90;;;-0.60;99.90;;;;;;5006908;28;20203;-94
2021/11/24 08:10:34;;;;;;;10.82;7.65;;;-0.50;99.90;;;;;;4998375;28;20213;-91
2021/11/24 08:13:07;;;;;;;11.85;7.13;;;0.10;99.90;;;;;;4999906;28;20203;-90
2021/11/24 08:15:34;;;;;;;9.75;7.60;;;0.70;99.90;;;;;;4996675;28;20203;-90
2021/11/24 08:18:02;;;;;;;12.15;7.63;;;1.50;99.90;;;;;;4998634;28;20219;-91
2021/11/24 08:20:28;;;;;;;10.07;9.05;;;2.10;99.90;;;;;;4999903;28;20207;-90
2021/11/24 08:22:56;;;;;;;9.00;7.38;;;2.80;99.90;;;;;;5000247;28;20199;-91
2021/11/24 08:25:23;;;;;;;11.18;7.80;;;3.50;99.90;;;;;;5007746;28;20384;-91
2021/11/24 08:27:49;;;;;;;11.30;7.82;;;4.30;99.90;;;;;;5011823;28;20209;-87
2021/11/24 08:30:17;;;;;;;14.95;8.88;;;5.00;99.90;;;;;;4996019;28;20286;-89
2021/11/24 08:32:43;;;;;;;12.68;8.88;;;5.60;99.90;;;;;;4996193;28;20696;-89
2021/11/24 08:35:12;;;;;;;12.25;8.68;;;6.10;99.90;;;;;;4995392;28;20234;-90
2021/11/24 08:37:38;;;;;;;10.68;8.60;;;6.50;99.90;;;;;;4995411;28;20206;-90
2021/11/24 08:40:07;;;;;;;11.55;9.65;;;6.80;99.90;;;;;;4995530;28;20399;-89
2021/11/24 08:42:34;;;;;;;10.13;8.57;;;7.00;99.90;;;;;;4994953;28;20203;-90
2021/11/24 08:45:01;;;;;;;11.52;9.23;;;7.20;99.90;;;;;;4994847;28;20223;-90
2021/11/24 08:47:27;;;;;;;12.75;10.70;;;7.30;99.90;;;;;;5010014;28;20202;-90
2021/11/24 08:49:54;;;;;;;11.93;9.80;;;7.60;99.90;;;;;;5014295;28;20190;-90
2021/11/24 08:52:22;;;;;;;13.50;9.55;;;7.70;99.90;;;;;;5013835;28;20215;-89
2021/11/24 08:54:49;;;;;;;11.15;9.63;;;7.80;99.90;;;;;;5014870;28;20234;-90
2021/11/24 08:57:16;;;;;;;13.27;9.90;;;7.80;99.90;;;;;;5013792;28;20202;-90
2021/11/24 08:59:43;;;;;;;16.27;11.02;;;7.90;99.90;;;;;;5013896;28;20199;-91
2021/11/24 09:02:10;;;;;;;11.57;8.80;;;8.30;99.90;;;;;;5000974;28;20582;-90
2021/11/24 09:04:43;;;;;;;11.70;8.77;;;9.30;99.90;;;;;;5013621;28;20584;-90
2021/11/24 09:07:19;;;;;;;11.63;9.57;;;10.80;98.10;;;;;;5013673;28;20234;-90
2021/11/24 09:09:55;;;;;;;13.05;9.55;;;11.50;96.80;;;;;;5013427;28;20292;-90
2021/11/24 09:12:29;;;;;;;13.30;9.35;;;12.50;95.70;;;;;;5013118;28;20644;-92
2021/11/24 09:15:05;;;;;;;11.32;9.63;;;13.50;94.60;;;;;;5012779;28;20233;-90
2021/11/24 09:17:40;;;;;;;11.70;9.35;;;13.80;93.90;;;;;;5012207;28;20633;-90
2021/11/24 09:20:16;;;;;;;10.90;9.20;;;13.90;93.60;;;;;;5013855;28;20236;-91
2021/11/24 09:22:44;;;;;;;13.98;8.95;;;13.50;93.30;;;;;;5010504;28;20202;-93
2021/11/24 09:25:25;;;;;;;11.80;10.13;;;13.20;93.90;;;;;;5012347;28;20224;-89
2021/11/24 09:27:58;;;;;;;13.10;9.75;;;12.90;93.70;;;;;;5013143;28;20198;-90
2021/11/24 09:30:26;;;;;;;13.15;10.25;;;12.50;94.30;;;;;;5013474;28;20206;-90
2021/11/24 09:32:54;;;;;;;10.15;9.15;;;11.50;95.20;;;;;;5012744;28;20207;-91
2021/11/24 09:35:21;;;;;;;13.07;9.98;;;11.20;96.10;;;;;;5013100;28;20202;-90
2021/11/24 09:37:47;;;;;;;11.35;10.13;;;11.00;96.30;;;;;;5016065;28;20206;-90
2021/11/24 09:40:16;;;;;;;11.48;10.25;;;11.10;96.90;;;;;;5015955;28;20203;-90
2021/11/24 09:42:45;;;;;;;11.48;10.20;;;10.70;96.60;;;;;;5016753;28;20537;-90
2021/11/24 09:45:15;;;;;;;12.68;10.32;;;9.70;97.20;;;;;;5015684;28;20195;-91
2021/11/24 09:47:45;;;;;;;12.32;10.43;;;8.70;98.60;;;;;;5016265;28;20238;-90
2021/11/24 09:50:12;;;;;;;14.13;10.88;;;7.90;99.50;;;;;;5015659;28;20228;-90
2021/11/24 09:52:43;;;;;;;15.52;11.02;;;7.10;99.90;;;;;;5015524;28;20213;-91
2021/11/24 09:55:09;;;;;;;13.13;10.60;;;6.40;99.90;;;;;;5016306;28;20234;-90
2021/11/24 09:57:38;;;;;;;13.85;11.43;;;5.90;99.90;;;;;;5016674;28;20217;-90
2021/11/24 10:00:07;;;;;;;12.82;10.30;;;5.20;99.90;;;;;;5016125;28;20205;-92
2021/11/24 10:02:36;;;;;;;13.93;11.02;;;4.80;99.90;;;;;;5014730;28;20217;-92
2021/11/24 10:05:05;;;;;;;11.98;10.48;;;4.40;99.90;;;;;;5015769;28;20277;-93
2021/11/24 10:07:31;;;;;;;17.75;10.55;;;4.40;99.90;;;;;;5015487;28;20199;-91
2021/11/24 10:09:58;;;;;;;13.25;10.85;;;4.50;99.90;;;;;;5017552;28;20707;-92
2021/11/24 10:12:28;;;;;;;17.33;11.07;;;4.50;99.90;;;;;;5017196;28;20198;-93
2021/11/24 10:14:56;;;;;;;14.95;10.35;;;4.40;99.90;;;;;;5024902;28;20250;-93
2021/11/24 10:17:25;;;;;;;14.75;11.18;;;4.30;99.90;;;;;;5025852;28;20767;-91
2021/11/24 10:20:01;;;;;;;12.75;10.80;;;4.60;99.90;;;;;;5015112;28;20194;-93
2021/11/24 10:22:29;;;;;;;13.85;10.40;;;4.80;99.90;;;;;;5014635;28;20214;-92
2021/11/24 10:25:07;;;;;;;14.68;10.65;;;4.90;99.90;;;;;;5001116;28;20287;-95
2021/11/24 10:27:38;;;;;;;16.95;11.23;;;4.90;99.90;;;;;;5006914;28;20234;-94
2021/11/24 10:30:08;;;;;;;14.95;11.55;;;4.80;99.90;;;;;;5012491;28;20230;-93
2021/11/24 10:32:35;;;;;;;14.35;11.43;;;4.50;99.90;;;;;;4992716;28;20626;-93
2021/11/24 10:35:03;;;;;;;14.60;11.73;;;4.40;99.90;;;;;;4999853;28;20220;-92
2021/11/24 10:37:31;;;;;;;12.82;11.05;;;4.20;99.90;;;;;;5014399;28;20285;-93
2021/11/24 10:40:02;;;;;;;14.65;11.57;;;4.00;99.90;;;;;;5014707;28;20623;-92
2021/11/24 10:42:35;;;;;;;14.40;10.90;;;4.10;99.90;;;;;;5013127;28;20672;-92
2021/11/24 10:45:13;;;;;;;14.85;11.05;;;4.30;99.90;;;;;;5005184;28;20633;-91
2021/11/24 10:47:50;;;;;;;13.48;10.85;;;4.20;99.90;;;;;;5016668;28;20206;-92
2021/11/24 10:50:22;;;;;;;15.68;10.45;;;4.00;99.90;;;;;;4999878;28;20222;-92
2021/11/24 10:52:49;;;;;;;16.05;11.18;;;4.00;99.90;;;;;;4997604;28;20206;-92
2021/11/24 10:55:21;;;;;;;15.70;11.20;;;3.90;99.90;;;;;;5006637;28;20227;-90
2021/11/24 10:58:01;;;;;;;16.52;10.80;;;3.80;99.90;;;;;;5009516;28;20210;-90
2021/11/24 11:00:54;;;;;;;17.27;11.85;;;3.90;99.90;;;;;;5026975;28;20206;-91
2021/11/24 11:03:32;;;;;;;15.68;11.63;;;4.00;99.90;;;;;;5024447;28;20226;-90
2021/11/24 11:05:59;;;;;;;15.32;11.45;;;4.40;99.90;;;;;;5018916;28;20194;-93
2021/11/24 11:08:26;;;;;;;14.07;11.20;;;4.90;99.90;;;;;;5016190;28;20217;-92
2021/11/24 11:10:56;;;;;;;15.93;10.85;;;5.10;99.90;;;;;;5011972;28;20211;-94
2021/11/24 11:13:23;;;;;;;15.90;11.57;;;5.50;99.90;;;;;;5002904;28;20226;-93
2021/11/24 11:15:54;;;;;;;13.23;10.07;;;6.90;99.90;;;;;;5004199;28;20207;-94
2021/11/24 11:18:50;;;;;;;14.68;11.38;;;9.00;99.90;;;;;;5011155;28;20207;-92
2021/11/24 11:24:14;;;;;;;13.73;10.73;;;10.80;99.20;;;;;;5006327;28;20238;-93
2021/11/24 11:26:45;;;;;;;13.68;10.35;;;11.70;97.30;;;;;;5003593;28;20206;-92
2021/11/24 11:32:07;;;;;;;11.95;10.27;;;13.30;95.90;;;;;;5031279;28;20693;-69
2021/11/24 11:34:37;;;;;;;12.40;11.07;;;13.40;96.00;;;;;;5032860;28;20228;-69
2021/11/24 11:37:05;;;;;;;13.98;11.93;;;13.20;95.20;;;;;;5032564;28;20222;-69
2021/11/24 11:39:31;;;;;;;14.00;11.50;;;13.00;95.20;;;;;;5032065;28;20202;-70
2021/11/24 11:41:58;;;;;;;13.35;10.68;;;12.70;95.20;;;;;;5032658;28;20300;-69
2021/11/24 11:44:26;;;;;;;13.60;11.77;;;11.60;94.90;;;;;;5032481;28;20220;-69
2021/11/24 11:46:54;;;;;;;13.43;10.90;;;10.40;95.80;;;;;;5032188;28;20221;-69
2021/11/24 11:49:23;;;;;;;12.98;11.07;;;10.20;97.00;;;;;;5032110;28;20602;-69
2021/11/24 11:51:53;;;;;;;13.85;11.20;;;11.00;97.30;;;;;;5028960;28;20205;-69
2021/11/24 11:54:26;;;;;;;12.70;10.50;;;11.90;96.40;;;;;;5031974;28;20205;-68
2021/11/24 11:56:53;;;;;;;13.50;10.70;;;11.80;94.80;;;;;;5032488;28;20217;-69
2021/11/24 11:59:22;;;;;;;11.27;9.88;;;11.70;95.50;;;;;;5031877;28;20284;-68
2021/11/24 12:01:59;;;;;;;13.43;10.10;;;11.60;96.10;;;;;;5032439;28;20198;-69
2021/11/24 12:04:30;;;;;;;12.95;9.45;;;11.50;95.40;;;;;;5031942;28;20206;-69
2021/11/24 12:07:08;;;;;;;13.05;10.55;;;11.20;95.60;;;;;;5031838;28;20222;-69
2021/11/24 12:09:48;;;;;;;12.82;10.90;;;11.30;95.60;;;;;;5031906;28;20222;-69
2021/11/24 12:12:23;;;;;;;12.98;10.52;;;11.00;95.40;;;;;;5031378;28;20197;-69
2021/11/24 12:14:59;;;;;;;12.52;9.70;;;11.00;96.00;;;;;;5032336;28;20284;-69
2021/11/24 12:17:54;;;;;;;12.55;10.05;;;10.90;96.00;;;;;;5031742;28;20233;-69
2021/11/24 12:20:47;;;;;;;11.13;9.70;;;10.60;95.10;;;;;;5030519;28;20202;-69
2021/11/24 12:23:18;;;;;;;15.85;9.95;;;10.00;95.50;;;;;;5031220;28;20206;-69
2021/11/24 12:25:47;;;;;;;14.20;9.68;;;9.70;96.40;;;;;;5031448;28;20558;-69
2021/11/24 12:28:17;;;;;;;9.70;8.43;;;9.60;96.50;;;;;;5030810;28;20222;-68
2021/11/24 12:31:10;;;;;;;12.45;8.93;;;9.50;96.80;;;;;;5031424;28;20218;-68
2021/11/24 12:33:45;;;;;;;13.40;8.73;;;9.30;96.90;;;;;;5027401;28;20206;-69
2021/11/24 12:36:16;;;;;;;13.52;9.40;;;9.30;97.10;;;;;;5030633;28;20575;-68
2021/11/24 12:38:46;;;;;;;12.43;9.73;;;9.40;97.00;;;;;;5031021;28;20867;-68
2021/11/24 12:41:16;;;;;;;12.77;9.50;;;9.20;96.30;;;;;;5030752;28;20212;-68
2021/11/24 12:43:45;;;;;;;10.50;8.50;;;8.80;96.20;;;;;;5031362;28;20206;-68
2021/11/24 12:46:16;;;;;;;12.65;9.00;;;8.40;97.00;;;;;;5037839;28;20201;-68
2021/11/24 12:48:46;;;;;;;14.10;8.75;;;8.30;97.30;;;;;;5033462;28;20751;-69
2021/11/24 12:51:21;;;;;;;11.05;8.98;;;8.30;97.70;;;;;;5030284;28;20208;-69
2021/11/24 12:53:54;;;;;;;12.15;9.80;;;8.20;98.40;;;;;;5031448;28;20296;-69
2021/11/24 12:56:23;;;;;;;11.73;9.27;;;8.00;98.10;;;;;;5031521;28;20201;-68
2021/11/24 12:58:50;;;;;;;12.88;8.80;;;8.00;98.60;;;;;;5030869;28;20303;-68
2021/11/24 13:01:20;;;;;;;12.30;8.57;;;8.10;97.90;;;;;;5029262;28;20201;-68